Terminal Aerodrome Forecast
Issued by NWS Missoula, MT

Home | Current Version | Previous Version | Text Only | Print | Product List | Glossary On
Versions: 1 2 3 4 5 6 7 8 9 10 11 12 13 14 15 16
000
FTUS45 KMSO 221700
TAFGPI
TAF
KGPI 221735Z 2218/2318 02010KT P6SM -SHRA BKN080 OVC100
     FM222000 02010KT P6SM -RA BKN050 OVC070
     FM222200 02012KT P6SM VCSH BKN080 OVC090
     FM230100 03015G22KT P6SM VCSH SCT060 OVC080=

USA.gov is the U.S. government's official web portal to all federal, state and local government web resources and services.